Time;durP1;ratioP1;P1;durP2;ratioP2;P2;SDS_P1;SDS_P2;PMS_P1;PMS_P2;Temp;Humidity;BMP_temperature;BMP_pressure;BME280_temperature;BME280_humidity;BME280_pressure;Samples;Min_cycle;Max_cycle;Signal;HPM_P1;HPM_P2
2021/01/12 00:01:13;;;;;;;75.40;39.47;;;52.10;2176.00;;;;;;5016262;28;20104;-55
2021/01/12 00:03:39;;;;;;;76.82;41.75;;;51.90;2176.00;;;;;;5016174;28;20160;-56
2021/01/12 00:06:05;;;;;;;79.20;38.83;;;52.10;2176.00;;;;;;5016527;28;20060;-54
2021/01/12 00:08:30;;;;;;;87.93;41.35;;;52.10;2150.40;;;;;;5012395;28;20026;-56
2021/01/12 00:10:57;;;;;;;88.60;41.42;;;51.90;2176.00;;;;;;5013303;28;20029;-54
2021/01/12 00:13:23;;;;;;;78.50;43.83;;;52.00;2176.00;;;;;;5012940;28;20030;-54
2021/01/12 00:15:48;;;;;;;84.82;42.55;;;52.00;2176.00;;;;;;5013161;28;20499;-55
2021/01/12 00:18:14;;;;;;;83.10;41.40;;;52.10;2176.00;;;;;;5012982;28;20053;-55
2021/01/12 00:20:40;;;;;;;77.40;38.28;;;52.00;2176.00;;;;;;5012852;28;20056;-54
2021/01/12 00:23:05;;;;;;;84.32;41.08;;;52.10;2150.40;;;;;;5012945;28;20040;-54
2021/01/12 00:25:31;;;;;;;80.72;39.97;;;52.10;2150.40;;;;;;5012655;28;20392;-54
2021/01/12 00:27:57;;;;;;;87.22;41.17;;;52.10;2176.00;;;;;;5012889;28;20030;-53
2021/01/12 00:30:22;;;;;;;99.13;49.80;;;52.00;2150.40;;;;;;5012591;28;20442;-55
2021/01/12 00:32:48;;;;;;;75.10;40.20;;;76.80;2150.40;;;;;;5012753;28;20028;-56
2021/01/12 00:35:14;;;;;;;86.90;44.75;;;76.80;2150.40;;;;;;5012752;28;20037;-54
2021/01/12 00:37:40;;;;;;;87.32;44.47;;;76.80;2150.40;;;;;;5012478;28;20075;-55
2021/01/12 00:40:06;;;;;;;84.47;45.13;;;52.10;2176.00;;;;;;5012735;28;20092;-54
2021/01/12 00:42:32;;;;;;;78.40;41.70;;;52.00;2176.00;;;;;;5012421;28;20050;-54
2021/01/12 00:44:57;;;;;;;88.00;44.50;;;52.00;2150.40;;;;;;5012505;28;20064;-55
2021/01/12 00:47:25;;;;;;;76.40;39.35;;;52.00;2176.00;;;;;;5011992;28;20079;-54
2021/01/12 00:49:52;;;;;;;78.05;41.65;;;51.90;2176.00;;;;;;5012077;28;20116;-54
2021/01/12 00:52:17;;;;;;;86.15;45.08;;;52.10;2150.40;;;;;;5012405;28;20088;-54
2021/01/12 00:54:43;;;;;;;82.07;48.15;;;76.80;2124.80;;;;;;5012122;28;20030;-54
2021/01/12 00:57:09;;;;;;;91.13;47.17;;;52.00;2150.40;;;;;;5012087;28;20033;-54
2021/01/12 00:59:34;;;;;;;86.72;42.10;;;52.10;2150.40;;;;;;5012239;28;20044;-54
2021/01/12 01:02:05;;;;;;;95.55;40.28;;;52.00;2150.40;;;;;;5011931;28;20105;-55
2021/01/12 01:04:31;;;;;;;81.45;37.72;;;76.80;2150.40;;;;;;5011848;28;20610;-54
2021/01/12 01:06:56;;;;;;;81.05;38.60;;;76.80;2150.40;;;;;;5012035;28;20061;-55
2021/01/12 01:09:22;;;;;;;89.32;38.63;;;76.80;2150.40;;;;;;5011704;28;20040;-54
2021/01/12 01:11:49;;;;;;;76.25;39.88;;;76.90;2124.80;;;;;;5012029;28;20026;-55
2021/01/12 01:14:16;;;;;;;65.82;35.70;;;76.90;2124.80;;;;;;5012093;28;20084;-56
2021/01/12 01:16:44;;;;;;;77.88;38.17;;;76.80;2150.40;;;;;;5011630;28;20029;-55
2021/01/12 01:19:11;;;;;;;80.50;37.65;;;76.80;2150.40;;;;;;5010720;28;20373;-57
2021/01/12 01:21:37;;;;;;;78.63;40.55;;;52.10;2150.40;;;;;;5011909;28;20153;-54
2021/01/12 01:24:03;;;;;;;84.57;40.22;;;52.10;2150.40;;;;;;5011382;28;20037;-55
2021/01/12 01:26:29;;;;;;;73.25;38.42;;;52.10;2150.40;;;;;;5012077;28;20026;-54
2021/01/12 01:28:55;;;;;;;85.88;41.58;;;52.10;2150.40;;;;;;5011800;28;20029;-54
2021/01/12 01:31:21;;;;;;;79.68;40.20;;;52.00;2176.00;;;;;;5011505;28;20022;-54
2021/01/12 01:33:47;;;;;;;81.18;39.95;;;52.00;2176.00;;;;;;5011732;28;20036;-54
2021/01/12 01:36:13;;;;;;;85.57;37.47;;;52.10;2176.00;;;;;;5011266;28;20036;-54
2021/01/12 01:38:39;;;;;;;86.70;39.67;;;52.10;2176.00;;;;;;5011462;28;20025;-56
2021/01/12 01:41:06;;;;;;;86.20;37.55;;;52.10;2150.40;;;;;;5011615;28;20052;-56
2021/01/12 01:43:33;;;;;;;74.50;36.58;;;51.90;2176.00;;;;;;5010929;28;20034;-55
2021/01/12 01:45:59;;;;;;;78.28;35.75;;;51.90;2176.00;;;;;;5011484;28;20060;-55
2021/01/12 01:48:25;;;;;;;72.57;38.90;;;52.00;2150.40;;;;;;5011151;28;20511;-56
2021/01/12 01:50:50;;;;;;;83.75;39.15;;;51.80;2176.00;;;;;;5010811;28;20053;-56
2021/01/12 01:53:16;;;;;;;81.55;38.03;;;51.90;2176.00;;;;;;5011446;28;20029;-55
2021/01/12 01:55:44;;;;;;;84.05;38.55;;;52.00;2176.00;;;;;;5011099;28;20033;-54
2021/01/12 01:58:10;;;;;;;85.40;40.10;;;52.10;2150.40;;;;;;5011092;28;20392;-56
2021/01/12 02:00:36;;;;;;;85.38;42.28;;;52.10;2150.40;;;;;;5011193;28;20049;-55
2021/01/12 02:03:25;;;;;;;88.38;39.08;;;52.10;2150.40;;;;;;5011003;28;20034;-57
2021/01/12 02:06:03;;;;;;;80.57;38.60;;;52.00;2150.40;;;;;;5011043;28;20022;-55
2021/01/12 02:08:55;;;;;;;72.15;36.05;;;52.00;2176.00;;;;;;5011035;28;20380;-56
2021/01/12 02:11:23;;;;;;;96.78;51.10;;;52.10;2150.40;;;;;;5012540;28;20553;-55
2021/01/12 02:13:57;;;;;;;79.28;39.70;;;52.10;2150.40;;;;;;5011094;28;20161;-55
2021/01/12 02:16:24;;;;;;;81.05;41.20;;;76.80;2150.40;;;;;;5010998;28;20025;-55
2021/01/12 02:18:53;;;;;;;85.70;42.10;;;51.80;2176.00;;;;;;5010739;28;20032;-56
2021/01/12 02:21:19;;;;;;;86.20;41.72;;;51.80;2201.60;;;;;;5011038;28;20404;-55
2021/01/12 02:23:56;;;;;;;82.13;40.92;;;51.90;2201.60;;;;;;5011064;28;20038;-55
2021/01/12 02:26:22;;;;;;;83.40;43.40;;;52.00;2176.00;;;;;;5010710;28;20037;-55
2021/01/12 02:28:48;;;;;;;94.80;45.20;;;52.00;2176.00;;;;;;5010829;28;20034;-54
2021/01/12 02:31:15;;;;;;;95.32;43.35;;;52.00;2176.00;;;;;;5010659;28;20022;-55
2021/01/12 02:33:42;;;;;;;88.25;41.55;;;52.00;2176.00;;;;;;5010641;28;20053;-55
2021/01/12 02:36:12;;;;;;;85.88;41.85;;;51.90;2201.60;;;;;;5010800;28;20025;-54
2021/01/12 02:38:38;;;;;;;95.57;45.97;;;51.90;2201.60;;;;;;5010630;28;20025;-55
2021/01/12 02:41:11;;;;;;;94.50;44.13;;;51.90;2201.60;;;;;;5010276;28;20423;-54
2021/01/12 02:43:39;;;;;;;94.20;44.92;;;51.90;2201.60;;;;;;5010585;28;20080;-55
2021/01/12 02:46:05;;;;;;;87.38;41.55;;;51.80;2227.20;;;;;;5010495;28;20105;-54
2021/01/12 02:48:31;;;;;;;93.80;45.40;;;51.80;2227.20;;;;;;5010012;28;20078;-56
2021/01/12 02:50:56;;;;;;;85.95;43.22;;;51.90;2201.60;;;;;;5010330;28;20038;-54
2021/01/12 02:53:22;;;;;;;94.53;43.17;;;51.90;2201.60;;;;;;5010202;28;20033;-55
2021/01/12 02:55:48;;;;;;;90.40;43.30;;;52.00;2201.60;;;;;;5010272;28;20528;-56
2021/01/12 02:58:13;;;;;;;92.53;44.90;;;52.10;2176.00;;;;;;5010333;28;20499;-54
2021/01/12 03:00:39;;;;;;;96.47;44.53;;;52.10;2176.00;;;;;;5010286;28;20455;-56
2021/01/12 03:03:05;;;;;;;92.18;41.35;;;52.10;2176.00;;;;;;5010341;28;20109;-55
2021/01/12 03:05:30;;;;;;;94.72;40.35;;;52.10;2176.00;;;;;;5010293;28;20030;-56
2021/01/12 03:07:56;;;;;;;92.00;43.38;;;52.10;2176.00;;;;;;5010443;28;20030;-55
2021/01/12 03:10:22;;;;;;;96.30;42.67;;;52.00;2176.00;;;;;;5010153;28;20469;-55
2021/01/12 03:12:47;;;;;;;89.15;42.60;;;52.10;2176.00;;;;;;5010359;28;20053;-55
2021/01/12 03:15:13;;;;;;;88.85;42.80;;;52.00;2201.60;;;;;;5010165;28;20065;-55
2021/01/12 03:17:39;;;;;;;92.22;46.97;;;52.00;2201.60;;;;;;5010344;28;20018;-54
2021/01/12 03:20:05;;;;;;;93.47;45.10;;;52.10;2201.60;;;;;;5010359;28;20452;-55
2021/01/12 03:22:31;;;;;;;101.18;43.63;;;52.00;2176.00;;;;;;5010039;28;20057;-55
2021/01/12 03:24:57;;;;;;;91.88;46.20;;;52.00;2201.60;;;;;;5010099;28;20073;-54
2021/01/12 03:27:23;;;;;;;97.10;44.05;;;51.70;2227.20;;;;;;5009847;28;20053;-55
2021/01/12 03:29:48;;;;;;;95.57;44.97;;;51.90;2201.60;;;;;;5010171;28;20030;-56
2021/01/12 03:32:14;;;;;;;93.75;44.53;;;51.90;2201.60;;;;;;5010116;28;20049;-55
2021/01/12 03:34:39;;;;;;;88.85;43.97;;;52.00;2176.00;;;;;;5009898;28;20072;-56
2021/01/12 03:37:05;;;;;;;100.85;47.33;;;51.90;2201.60;;;;;;5009963;28;20022;-55
2021/01/12 03:39:31;;;;;;;100.53;45.63;;;51.90;2201.60;;;;;;5009904;28;20034;-55
2021/01/12 03:41:56;;;;;;;97.00;44.60;;;52.00;2201.60;;;;;;5010367;28;20022;-54
2021/01/12 03:44:22;;;;;;;99.68;45.72;;;51.90;2201.60;;;;;;5013296;28;20087;-55
2021/01/12 03:46:48;;;;;;;88.03;42.20;;;52.00;2176.00;;;;;;5013770;28;20058;-54
2021/01/12 03:49:13;;;;;;;96.55;44.03;;;52.00;2176.00;;;;;;5013356;28;20050;-56
2021/01/12 03:51:39;;;;;;;101.80;45.90;;;52.00;2201.60;;;;;;5013497;28;20026;-55
2021/01/12 03:54:05;;;;;;;88.93;40.38;;;52.00;2201.60;;;;;;5013417;28;20034;-55
2021/01/12 03:56:30;;;;;;;81.68;40.92;;;52.10;2176.00;;;;;;5013316;28;20040;-54
2021/01/12 03:58:56;;;;;;;96.88;47.22;;;76.80;2150.40;;;;;;5013358;28;20033;-55
2021/01/12 04:01:22;;;;;;;93.63;42.72;;;76.80;2150.40;;;;;;5013515;28;20036;-55
2021/01/12 04:03:47;;;;;;;94.55;45.35;;;52.00;2201.60;;;;;;5013596;28;20038;-54
2021/01/12 04:06:15;;;;;;;108.85;44.95;;;52.10;2176.00;;;;;;5013296;28;20392;-55
2021/01/12 04:08:45;;;;;;;84.32;39.75;;;52.10;2150.40;;;;;;5013255;28;20038;-55
2021/01/12 04:11:13;;;;;;;93.43;45.55;;;52.00;2176.00;;;;;;5013006;28;20030;-54
2021/01/12 04:13:39;;;;;;;82.53;40.05;;;51.80;2201.60;;;;;;5013189;28;20037;-55
2021/01/12 04:16:06;;;;;;;85.80;42.55;;;51.90;2176.00;;;;;;5013210;28;20028;-55
2021/01/12 04:18:32;;;;;;;93.63;41.65;;;51.90;2201.60;;;;;;5012925;28;20113;-54
2021/01/12 04:20:57;;;;;;;96.82;43.65;;;51.90;2201.60;;;;;;5012990;28;20126;-54
2021/01/12 04:23:23;;;;;;;91.80;43.97;;;51.90;2201.60;;;;;;5012929;28;20124;-55
2021/01/12 04:25:49;;;;;;;90.13;44.92;;;52.00;2176.00;;;;;;5012959;28;20675;-55
2021/01/12 04:28:15;;;;;;;98.00;42.65;;;52.10;2176.00;;;;;;5012936;28;20091;-55
2021/01/12 04:30:41;;;;;;;99.80;45.80;;;52.10;2176.00;;;;;;5012737;28;20026;-54
2021/01/12 04:33:06;;;;;;;85.28;41.97;;;52.00;2176.00;;;;;;5012893;28;20034;-54
2021/01/12 04:35:32;;;;;;;79.50;38.97;;;52.10;2176.00;;;;;;5013112;28;20145;-54
2021/01/12 04:37:58;;;;;;;83.38;40.83;;;52.00;2176.00;;;;;;5012830;28;20468;-54
2021/01/12 04:40:24;;;;;;;95.05;43.03;;;51.90;2201.60;;;;;;5012559;28;20030;-55
2021/01/12 04:42:49;;;;;;;98.25;46.35;;;52.00;2176.00;;;;;;5012454;28;20113;-55
2021/01/12 04:45:16;;;;;;;101.43;44.50;;;51.90;2201.60;;;;;;5012657;28;20044;-55
2021/01/12 04:47:41;;;;;;;108.43;49.22;;;51.90;2201.60;;;;;;5012184;28;20181;-54
2021/01/12 04:50:08;;;;;;;91.10;41.38;;;52.00;2201.60;;;;;;5012554;28;20516;-54
2021/01/12 04:52:44;;;;;;;98.43;46.15;;;52.00;2176.00;;;;;;5012153;28;20034;-54
2021/01/12 04:55:11;;;;;;;90.72;43.75;;;52.10;2176.00;;;;;;5012148;28;20480;-54
2021/01/12 04:57:37;;;;;;;89.53;43.45;;;52.00;2176.00;;;;;;5012297;28;20115;-54
2021/01/12 05:00:09;;;;;;;96.38;44.90;;;52.10;2176.00;;;;;;5012088;28;20061;-54
2021/01/12 05:02:35;;;;;;;99.93;47.22;;;51.90;2201.60;;;;;;5012212;28;20040;-55
2021/01/12 05:05:03;;;;;;;92.13;43.10;;;51.90;2201.60;;;;;;5012027;28;20129;-54
2021/01/12 05:07:28;;;;;;;106.22;63.47;;;51.90;2176.00;;;;;;5012204;28;20061;-55
2021/01/12 05:09:54;;;;;;;77.20;39.83;;;51.80;2201.60;;;;;;5011852;28;20583;-54
2021/01/12 05:12:21;;;;;;;87.43;44.05;;;52.00;2176.00;;;;;;5011772;28;20384;-56
2021/01/12 05:14:48;;;;;;;94.95;44.72;;;51.90;2176.00;;;;;;5012387;28;20029;-55
2021/01/12 05:17:19;;;;;;;98.72;46.60;;;51.90;2176.00;;;;;;5011827;28;20032;-55
2021/01/12 05:19:52;;;;;;;104.97;45.67;;;51.90;2176.00;;;;;;5012356;28;20458;-54
2021/01/12 05:22:18;;;;;;;88.72;43.92;;;51.70;2201.60;;;;;;5011983;28;20460;-55
2021/01/12 05:24:45;;;;;;;95.55;44.10;;;51.80;2201.60;;;;;;5011812;28;20046;-54
2021/01/12 05:27:11;;;;;;;117.38;53.92;;;52.00;2176.00;;;;;;5011524;28;20061;-54
2021/01/12 05:29:39;;;;;;;96.15;44.72;;;52.10;2150.40;;;;;;5012024;28;20026;-55
2021/01/12 05:32:11;;;;;;;94.70;47.90;;;51.80;2176.00;;;;;;5011870;28;20101;-54
2021/01/12 05:34:41;;;;;;;97.72;46.60;;;51.70;2227.20;;;;;;5011702;28;20106;-54
2021/01/12 05:37:09;;;;;;;104.53;44.75;;;51.80;2201.60;;;;;;5011656;28;20018;-54
2021/01/12 05:39:40;;;;;;;89.78;41.85;;;51.80;2201.60;;;;;;5011386;28;20073;-55
2021/01/12 05:42:08;;;;;;;99.65;46.17;;;51.80;2201.60;;;;;;5011816;28;20052;-55
2021/01/12 05:44:40;;;;;;;89.43;42.35;;;51.60;2227.20;;;;;;5011184;28;20034;-55
2021/01/12 05:47:07;;;;;;;89.05;42.60;;;51.60;2227.20;;;;;;5011545;28;20554;-55
2021/01/12 05:49:33;;;;;;;92.07;42.15;;;51.50;2227.20;;;;;;5011055;28;20054;-56
2021/01/12 05:51:59;;;;;;;104.10;46.47;;;51.60;2227.20;;;;;;5011390;28;20040;-55
2021/01/12 05:54:27;;;;;;;96.28;42.53;;;51.60;2227.20;;;;;;5011335;28;20041;-54
2021/01/12 05:57:01;;;;;;;100.03;44.45;;;51.60;2227.20;;;;;;5010874;28;20384;-54
2021/01/12 05:59:32;;;;;;;92.38;41.53;;;51.80;2201.60;;;;;;5011511;28;20434;-54
2021/01/12 06:02:02;;;;;;;80.15;37.22;;;51.60;2227.20;;;;;;5011242;28;20115;-55
2021/01/12 06:04:28;;;;;;;94.90;41.90;;;51.50;2227.20;;;;;;5010833;28;20121;-54
2021/01/12 06:06:58;;;;;;;83.68;39.67;;;51.60;2227.20;;;;;;5010753;28;20113;-56
2021/01/12 06:09:24;;;;;;;94.43;46.97;;;51.70;2201.60;;;;;;5010957;28;20026;-54
2021/01/12 06:11:52;;;;;;;94.80;45.85;;;52.00;2176.00;;;;;;5011094;28;20026;-55
2021/01/12 06:14:23;;;;;;;120.32;58.78;;;51.90;2176.00;;;;;;5011397;28;20088;-55
2021/01/12 06:16:49;;;;;;;82.35;41.80;;;51.60;2201.60;;;;;;5010823;28;20108;-55
2021/01/12 06:19:18;;;;;;;90.57;48.00;;;51.70;2201.60;;;;;;5011185;28;20112;-55
2021/01/12 06:21:55;;;;;;;91.72;42.70;;;51.70;2201.60;;;;;;5010863;28;20032;-54
2021/01/12 06:24:24;;;;;;;77.28;37.92;;;51.80;2176.00;;;;;;5010806;28;20038;-54
2021/01/12 06:26:53;;;;;;;93.90;41.38;;;51.70;2176.00;;;;;;5010723;28;20014;-56
2021/01/12 06:29:19;;;;;;;81.47;38.67;;;51.90;2176.00;;;;;;5010814;28;20034;-56
2021/01/12 06:31:49;;;;;;;84.63;39.03;;;52.00;2150.40;;;;;;5010839;28;20113;-55
2021/01/12 06:34:20;;;;;;;86.10;43.22;;;52.10;2150.40;;;;;;5010799;28;20100;-55
2021/01/12 06:36:54;;;;;;;83.75;38.30;;;76.80;2124.80;;;;;;5010606;28;20383;-54
2021/01/12 06:39:40;;;;;;;83.03;39.95;;;76.90;2124.80;;;;;;5010308;28;20034;-55
2021/01/12 06:42:07;;;;;;;79.30;41.88;;;76.90;2124.80;;;;;;5010589;28;20029;-54
2021/01/12 06:44:34;;;;;;;100.10;46.97;;;76.90;2124.80;;;;;;5010225;28;20072;-55
2021/01/12 06:47:02;;;;;;;111.60;53.95;;;77.00;2124.80;;;;;;5010141;28;20036;-55
2021/01/12 06:49:28;;;;;;;84.95;43.33;;;77.00;2099.20;;;;;;5010274;28;20071;-55
2021/01/12 06:52:01;;;;;;;81.80;42.15;;;76.90;2099.20;;;;;;5010342;28;20535;-55
2021/01/12 06:54:44;;;;;;;90.72;44.72;;;77.00;2099.20;;;;;;5010581;28;20030;-56
2021/01/12 06:57:14;;;;;;;84.60;43.63;;;77.00;2124.80;;;;;;5010420;28;20080;-56
2021/01/12 06:59:45;;;;;;;123.43;69.55;;;77.10;2099.20;;;;;;5010202;28;20050;-58
2021/01/12 07:02:30;;;;;;;306.75;178.80;;;77.20;2099.20;;;;;;5010224;28;20025;-56
2021/01/12 07:05:05;;;;;;;204.52;111.30;;;77.20;2073.60;;;;;;5010138;28;20030;-56
2021/01/12 07:07:41;;;;;;;186.57;106.38;;;77.30;2073.60;;;;;;5010078;28;20028;-56
2021/01/12 07:10:09;;;;;;;151.30;84.28;;;77.30;2073.60;;;;;;5025519;28;20378;-56
2021/01/12 07:12:36;;;;;;;128.52;71.47;;;77.20;2073.60;;;;;;5030098;28;20105;-57
2021/01/12 07:15:05;;;;;;;135.13;83.53;;;77.30;2073.60;;;;;;5029752;28;20039;-56
2021/01/12 07:17:33;;;;;;;78.80;39.25;;;77.30;2073.60;;;;;;5032676;28;20375;-56
2021/01/12 07:20:13;;;;;;;74.90;38.38;;;77.40;2048.00;;;;;;5034020;28;20083;-60
2021/01/12 07:22:41;;;;;;;91.78;44.28;;;77.40;2048.00;;;;;;5033885;28;20029;-55
2021/01/12 07:25:09;;;;;;;98.20;55.95;;;77.40;2048.00;;;;;;5033650;28;20048;-55
2021/01/12 07:27:36;;;;;;;76.70;40.33;;;77.40;2048.00;;;;;;5033834;28;20021;-56
2021/01/12 07:30:05;;;;;;;91.05;51.15;;;77.40;2048.00;;;;;;5033527;28;20022;-56
2021/01/12 07:32:33;;;;;;;86.82;42.20;;;77.40;2048.00;;;;;;5033561;28;20025;-56
2021/01/12 07:35:03;;;;;;;75.68;41.10;;;77.50;2048.00;;;;;;5033688;28;20021;-57
2021/01/12 07:37:31;;;;;;;91.50;41.78;;;77.40;2048.00;;;;;;5033506;28;20025;-55
2021/01/12 07:39:58;;;;;;;87.63;41.45;;;77.60;2048.00;;;;;;5033505;28;20079;-56
2021/01/12 07:42:24;;;;;;;86.75;43.53;;;77.60;2022.40;;;;;;5033434;28;20109;-56
2021/01/12 07:44:50;;;;;;;99.43;49.78;;;77.70;2022.40;;;;;;5033275;28;20029;-56
2021/01/12 07:47:17;;;;;;;68.55;38.08;;;77.70;2048.00;;;;;;5033289;28;20025;-59
2021/01/12 07:49:44;;;;;;;79.95;41.38;;;102.40;2022.40;;;;;;5033198;28;20395;-56
2021/01/12 07:52:10;;;;;;;79.28;42.90;;;77.60;2022.40;;;;;;5033153;28;20105;-59
2021/01/12 07:54:36;;;;;;;78.38;40.75;;;77.60;2048.00;;;;;;5033236;28;20112;-58
2021/01/12 07:57:01;;;;;;;77.85;36.58;;;77.70;2022.40;;;;;;5033286;28;20060;-60
2021/01/12 07:59:27;;;;;;;75.85;40.28;;;102.40;1996.80;;;;;;5033347;28;20029;-56
2021/01/12 08:01:54;;;;;;;78.18;40.85;;;102.40;1996.80;;;;;;5028535;28;20025;-59
2021/01/12 08:04:20;;;;;;;77.22;39.67;;;102.40;1996.80;;;;;;5015515;28;20438;-57
2021/01/12 08:06:48;;;;;;;72.75;40.58;;;102.50;1996.80;;;;;;5013482;28;20026;-57
2021/01/12 08:09:24;;;;;;;92.13;47.53;;;102.50;1996.80;;;;;;5013190;28;20549;-58
2021/01/12 08:11:54;;;;;;;107.95;54.22;;;102.50;1996.80;;;;;;5013354;28;20030;-57
2021/01/12 08:14:23;;;;;;;64.40;34.63;;;102.60;1971.20;;;;;;5013254;28;20152;-56
2021/01/12 08:16:53;;;;;;;68.35;37.25;;;102.60;1945.60;;;;;;5013007;28;20022;-56
2021/01/12 08:19:21;;;;;;;60.00;35.45;;;102.80;1920.00;;;;;;5013022;28;20026;-56
2021/01/12 08:21:47;;;;;;;75.68;46.47;;;102.70;1945.60;;;;;;5013443;28;20022;-56
2021/01/12 08:24:19;;;;;;;78.93;40.25;;;102.60;1971.20;;;;;;5012586;28;20115;-56
2021/01/12 08:26:45;;;;;;;75.32;37.83;;;102.80;1945.60;;;;;;5013214;28;20018;-59
2021/01/12 08:29:12;;;;;;;63.63;35.90;;;102.70;1945.60;;;;;;5012104;28;20026;-56
2021/01/12 08:31:47;;;;;;;76.53;38.33;;;102.80;1945.60;;;;;;5012861;28;20022;-56
2021/01/12 08:34:20;;;;;;;92.72;49.60;;;102.70;1945.60;;;;;;5012582;28;20503;-55
2021/01/12 08:36:49;;;;;;;72.93;40.43;;;102.70;1920.00;;;;;;5012878;28;20416;-57
2021/01/12 08:39:15;;;;;;;80.53;45.75;;;102.80;1945.60;;;;;;5012860;28;20264;-55
2021/01/12 08:41:44;;;;;;;79.53;40.65;;;102.80;1945.60;;;;;;5012401;28;20495;-59
2021/01/12 08:44:11;;;;;;;84.85;44.70;;;102.70;1920.00;;;;;;5012428;28;20040;-56
2021/01/12 08:46:37;;;;;;;69.47;37.83;;;102.80;1920.00;;;;;;5013959;28;20168;-54
2021/01/12 08:49:03;;;;;;;85.45;47.33;;;102.60;1945.60;;;;;;5031661;28;20551;-56
2021/01/12 08:51:31;;;;;;;91.07;56.10;;;102.70;1945.60;;;;;;5032307;28;20103;-56
2021/01/12 08:53:58;;;;;;;101.05;58.35;;;102.70;1971.20;;;;;;5032332;28;20549;-55
2021/01/12 08:56:24;;;;;;;84.15;53.28;;;102.60;1971.20;;;;;;5032039;28;20147;-55
2021/01/12 08:58:49;;;;;;;83.90;47.42;;;102.70;1945.60;;;;;;5031859;28;20100;-57
2021/01/12 09:01:27;;;;;;;79.05;40.67;;;102.80;1945.60;;;;;;5032179;28;20071;-60
2021/01/12 09:04:02;;;;;;;78.20;37.78;;;102.80;1945.60;;;;;;5031748;28;20036;-55
2021/01/12 09:06:28;;;;;;;98.15;54.58;;;102.80;1945.60;;;;;;5031307;28;20032;-56
2021/01/12 09:09:03;;;;;;;74.57;38.63;;;103.00;1920.00;;;;;;5030789;28;20430;-56
2021/01/12 09:11:29;;;;;;;77.57;40.63;;;103.10;1894.40;;;;;;5031865;28;20384;-56
2021/01/12 09:14:03;;;;;;;74.35;37.63;;;103.20;1894.40;;;;;;5030738;28;20030;-55
2021/01/12 09:16:30;;;;;;;77.18;37.70;;;103.00;1920.00;;;;;;5030934;28;20037;-56
2021/01/12 09:18:55;;;;;;;79.93;43.38;;;103.20;1894.40;;;;;;5029055;28;20400;-54
2021/01/12 09:21:23;;;;;;;93.50;49.88;;;103.10;1894.40;;;;;;5030994;28;20026;-56
2021/01/12 09:23:49;;;;;;;81.95;48.03;;;103.20;1920.00;;;;;;5031469;28;20038;-56
2021/01/12 09:26:19;;;;;;;81.28;40.05;;;103.20;1920.00;;;;;;5030416;28;20028;-57
2021/01/12 09:28:45;;;;;;;74.93;36.88;;;128.10;1920.00;;;;;;5031525;28;20087;-55
2021/01/12 09:31:13;;;;;;;60.08;33.40;;;128.00;1920.00;;;;;;5030222;28;20025;-56
2021/01/12 09:33:44;;;;;;;75.07;44.00;;;128.10;1894.40;;;;;;5031540;28;20037;-56
2021/01/12 09:36:12;;;;;;;65.13;35.55;;;128.20;1843.20;;;;;;5030197;28;20546;-60
2021/01/12 09:38:43;;;;;;;68.20;45.70;;;128.00;1868.80;;;;;;5031142;28;20033;-56
2021/01/12 09:41:09;;;;;;;64.25;37.70;;;103.30;1868.80;;;;;;5020784;28;20041;-55
2021/01/12 09:43:36;;;;;;;60.38;29.75;;;128.30;1868.80;;;;;;5022184;28;20037;-55
2021/01/12 09:46:02;;;;;;;54.20;30.45;;;128.10;1817.60;;;;;;5030888;28;20062;-55
2021/01/12 09:48:28;;;;;;;58.58;31.70;;;128.40;1843.20;;;;;;5029816;28;20048;-58
2021/01/12 09:50:54;;;;;;;67.30;38.38;;;128.40;1817.60;;;;;;5030749;28;20037;-56
2021/01/12 09:53:20;;;;;;;56.50;32.85;;;128.50;1817.60;;;;;;5030732;28;20033;-56
2021/01/12 09:55:46;;;;;;;63.50;31.05;;;128.20;1843.20;;;;;;5030942;28;20471;-58
2021/01/12 09:58:11;;;;;;;73.07;45.83;;;128.50;1817.60;;;;;;5030345;28;20079;-60
2021/01/12 10:00:37;;;;;;;67.57;38.55;;;128.80;1792.00;;;;;;5030952;28;20072;-59
2021/01/12 10:03:06;;;;;;;55.00;28.65;;;128.90;1766.40;;;;;;5030535;28;20025;-56
2021/01/12 10:05:36;;;;;;;58.10;30.65;;;128.70;1792.00;;;;;;5030783;28;20479;-55
2021/01/12 10:08:02;;;;;;;79.00;46.28;;;128.90;1792.00;;;;;;5030547;28;20537;-56
2021/01/12 10:10:28;;;;;;;77.43;44.92;;;153.70;1766.40;;;;;;5030724;28;20112;-56
2021/01/12 10:12:54;;;;;;;61.25;31.30;;;153.90;1766.40;;;;;;5030451;28;20537;-56
2021/01/12 10:15:19;;;;;;;58.28;34.00;;;154.00;1715.20;;;;;;5030737;28;20022;-58
2021/01/12 10:17:45;;;;;;;54.15;27.33;;;154.00;1740.80;;;;;;5030651;28;20034;-56
2021/01/12 10:20:11;;;;;;;52.80;32.08;;;154.10;1715.20;;;;;;5030463;28;20064;-57
2021/01/12 10:22:37;;;;;;;82.55;49.03;;;153.80;1740.80;;;;;;5028774;28;20032;-56
2021/01/12 10:25:03;;;;;;;71.88;40.42;;;154.10;1740.80;;;;;;5012507;28;20042;-55
2021/01/12 10:27:34;;;;;;;67.25;36.42;;;154.10;1715.20;;;;;;5010463;28;20018;-56
2021/01/12 10:30:01;;;;;;;55.05;35.83;;;154.10;1715.20;;;;;;5010729;28;20017;-57
2021/01/12 10:32:27;;;;;;;49.65;28.40;;;154.30;1689.60;;;;;;5023980;28;20013;-54
2021/01/12 10:34:52;;;;;;;54.05;30.55;;;154.10;1689.60;;;;;;5017077;28;20028;-56
2021/01/12 10:37:18;;;;;;;58.00;33.90;;;154.20;1689.60;;;;;;5016984;28;20076;-56
2021/01/12 10:39:44;;;;;;;56.55;33.45;;;154.00;1689.60;;;;;;5021179;28;20017;-56
2021/01/12 10:42:10;;;;;;;45.28;27.83;;;154.20;1689.60;;;;;;5021498;28;20026;-56
2021/01/12 10:44:36;;;;;;;52.22;29.83;;;153.80;1715.20;;;;;;5019888;28;20030;-55
2021/01/12 10:47:02;;;;;;;48.92;29.55;;;153.90;1740.80;;;;;;5010360;28;20045;-58
2021/01/12 10:49:28;;;;;;;44.47;28.95;;;153.70;1766.40;;;;;;5021390;28;20052;-61
2021/01/12 10:52:02;;;;;;;47.67;27.40;;;153.60;1715.20;;;;;;5026950;28;20014;-55
2021/01/12 10:54:28;;;;;;;51.35;28.10;;;153.70;1766.40;;;;;;5010310;28;20483;-56
2021/01/12 10:56:54;;;;;;;48.45;28.50;;;128.90;1766.40;;;;;;5012187;28;20471;-54
2021/01/12 10:59:20;;;;;;;69.80;38.42;;;128.90;1740.80;;;;;;5023742;28;20037;-55
2021/01/12 11:02:00;;;;;;;53.10;30.58;;;128.60;1792.00;;;;;;5021724;28;20539;-59
2021/01/12 11:04:25;;;;;;;53.88;30.00;;;128.50;1817.60;;;;;;5021648;28;20036;-59
2021/01/12 11:06:52;;;;;;;212.57;129.60;;;128.60;1817.60;;;;;;5021963;28;20018;-56
2021/01/12 11:09:21;;;;;;;48.83;31.20;;;128.50;1792.00;;;;;;5021810;28;20379;-59
2021/01/12 11:11:48;;;;;;;47.10;29.77;;;128.50;1792.00;;;;;;5021344;28;20112;-58
2021/01/12 11:14:18;;;;;;;50.67;28.70;;;128.70;1766.40;;;;;;5020491;28;20030;-57
2021/01/12 11:16:44;;;;;;;57.05;29.83;;;128.90;1740.80;;;;;;5022024;28;20013;-56
2021/01/12 11:19:10;;;;;;;83.47;49.58;;;153.80;1740.80;;;;;;5022251;28;20037;-56
2021/01/12 11:21:50;;;;;;;70.20;43.00;;;154.10;1689.60;;;;;;5022929;28;20013;-60
2021/01/12 11:24:23;;;;;;;51.17;31.13;;;154.20;1689.60;;;;;;5021365;28;20494;-55
2021/01/12 11:26:49;;;;;;;56.80;35.72;;;153.90;1715.20;;;;;;5021609;28;20594;-58
2021/01/12 11:29:17;;;;;;;106.85;64.32;;;153.90;1715.20;;;;;;5023754;28;20491;-57
2021/01/12 11:31:43;;;;;;;89.55;53.08;;;154.10;1715.20;;;;;;5026980;28;20018;-54
2021/01/12 11:34:09;;;;;;;115.88;70.63;;;154.20;1689.60;;;;;;5027306;28;20036;-55
2021/01/12 11:36:45;;;;;;;68.10;43.97;;;154.20;1689.60;;;;;;5026001;28;20029;-59
2021/01/12 11:39:13;;;;;;;63.88;36.92;;;154.20;1715.20;;;;;;5028161;28;20033;-57
2021/01/12 11:41:49;;;;;;;51.72;31.27;;;154.00;1715.20;;;;;;5029747;28;20030;-55
2021/01/12 11:44:15;;;;;;;50.88;29.80;;;153.80;1715.20;;;;;;5029280;28;20499;-53
2021/01/12 11:46:42;;;;;;;41.42;25.92;;;128.80;1792.00;;;;;;5029070;28;20112;-59
2021/01/12 11:49:08;;;;;;;42.03;28.10;;;153.60;1766.40;;;;;;5029424;28;20068;-56
2021/01/12 11:51:35;;;;;;;38.00;26.10;;;153.60;1766.40;;;;;;5029251;28;20550;-56
2021/01/12 11:54:01;;;;;;;50.53;31.63;;;153.70;1740.80;;;;;;5029621;28;20097;-55
2021/01/12 11:56:26;;;;;;;53.88;31.00;;;128.90;1766.40;;;;;;5029530;28;20049;-56
2021/01/12 11:58:52;;;;;;;41.75;26.83;;;128.70;1766.40;;;;;;5029172;28;20025;-55
2021/01/12 12:01:17;;;;;;;38.60;24.25;;;128.60;1766.40;;;;;;5029664;28;20026;-59
2021/01/12 12:03:43;;;;;;;39.67;22.70;;;128.90;1766.40;;;;;;5030787;28;20029;-56
2021/01/12 12:06:12;;;;;;;34.05;22.40;;;128.80;1766.40;;;;;;5033027;28;20029;-55